createdAt,value
2023-05-06T00:00:33.662Z,2.37
2023-05-06T00:03:01.692Z,2.90
2023-05-06T00:05:29.867Z,2.30
2023-05-06T00:07:57.750Z,2.27
2023-05-06T00:10:25.888Z,1.83
2023-05-06T00:12:53.896Z,2.40
2023-05-06T00:15:23.259Z,2.80
2023-05-06T00:17:51.224Z,2.97
2023-05-06T00:20:19.209Z,2.97
2023-05-06T00:22:47.037Z,2.37
2023-05-06T00:25:15.052Z,1.90
2023-05-06T00:27:42.849Z,3.13
2023-05-06T00:30:12.272Z,2.20
2023-05-06T00:32:41.501Z,2.07
2023-05-06T00:35:10.557Z,2.10
2023-05-06T00:37:38.584Z,1.87
2023-05-06T00:40:08.050Z,1.77
2023-05-06T00:42:36.145Z,1.40
2023-05-06T00:45:04.107Z,1.60
2023-05-06T00:47:32.424Z,1.43
2023-05-06T00:50:01.813Z,1.60
2023-05-06T00:52:29.986Z,1.97
2023-05-06T00:54:58.035Z,1.30
2023-05-06T00:57:25.990Z,1.90
2023-05-06T00:59:53.869Z,2.23
2023-05-06T01:02:21.980Z,1.70
2023-05-06T01:04:51.692Z,2.00
2023-05-06T01:07:29.612Z,1.87
2023-05-06T01:10:07.894Z,2.17
2023-05-06T01:12:44.271Z,3.80
2023-05-06T01:15:16.696Z,2.20
2023-05-06T01:17:48.903Z,2.60
2023-05-06T01:20:21.008Z,3.20
2023-05-06T01:22:50.837Z,2.47
2023-05-06T01:25:23.756Z,2.80
2023-05-06T01:27:51.946Z,2.47
2023-05-06T01:30:21.466Z,2.87
2023-05-06T01:32:59.294Z,2.50
2023-05-06T01:35:35.419Z,3.80
2023-05-06T01:38:13.013Z,2.90
2023-05-06T01:40:43.541Z,4.10
2023-05-06T01:43:12.844Z,4.43
2023-05-06T01:45:41.513Z,4.50
2023-05-06T01:48:10.542Z,4.20
2023-05-06T01:50:39.138Z,3.53
2023-05-06T01:53:06.976Z,3.40
2023-05-06T01:55:34.832Z,2.73
2023-05-06T01:58:04.036Z,2.90
2023-05-06T02:00:31.881Z,3.17
2023-05-06T02:02:59.915Z,3.07
2023-05-06T02:05:28.010Z,4.47
2023-05-06T02:07:55.865Z,5.60
2023-05-06T02:10:23.700Z,3.60
2023-05-06T02:12:51.996Z,2.80
2023-05-06T02:15:21.732Z,2.37
2023-05-06T02:17:49.681Z,4.50
2023-05-06T02:20:17.565Z,2.23
2023-05-06T02:22:45.478Z,2.70
2023-05-06T02:25:13.322Z,3.93
2023-05-06T02:27:41.171Z,3.00
2023-05-06T02:30:09.560Z,3.80
2023-05-06T02:32:38.827Z,3.27
2023-05-06T02:35:08.079Z,3.30
2023-05-06T02:37:36.100Z,2.80
2023-05-06T02:40:06.350Z,2.53
2023-05-06T02:42:35.477Z,3.00
2023-05-06T02:45:03.595Z,3.27
2023-05-06T02:47:31.462Z,3.20
2023-05-06T02:50:00.774Z,2.97
2023-05-06T02:52:28.630Z,4.00
2023-05-06T02:54:56.510Z,3.10
2023-05-06T02:57:24.391Z,3.60
2023-05-06T02:59:52.249Z,3.30
2023-05-06T03:02:20.290Z,2.83
2023-05-06T03:04:48.148Z,3.20
2023-05-06T03:07:17.398Z,3.10
2023-05-06T03:09:45.290Z,3.33
2023-05-06T03:12:13.104Z,3.47
2023-05-06T03:14:40.939Z,3.30
2023-05-06T03:17:08.786Z,3.43
2023-05-06T03:19:36.743Z,3.30
2023-05-06T03:22:04.668Z,3.47
2023-05-06T03:24:33.914Z,2.67
2023-05-06T03:27:01.810Z,3.67
2023-05-06T03:29:29.706Z,3.07
2023-05-06T03:31:57.889Z,3.40
2023-05-06T03:34:25.957Z,3.23
2023-05-06T03:36:53.838Z,3.57
2023-05-06T03:39:21.862Z,3.70
2023-05-06T03:41:51.153Z,3.17
2023-05-06T03:44:19.002Z,4.10
2023-05-06T03:46:46.878Z,4.27
2023-05-06T03:49:14.742Z,5.40
2023-05-06T03:51:42.686Z,4.20
2023-05-06T03:54:10.587Z,4.00
2023-05-06T03:56:38.445Z,3.17
2023-05-06T03:59:07.656Z,4.07
2023-05-06T04:01:36.639Z,3.83
2023-05-06T04:04:04.682Z,2.77
2023-05-06T04:06:32.593Z,2.73
2023-05-06T04:09:00.457Z,3.13
2023-05-06T04:11:29.808Z,3.00
2023-05-06T04:13:57.891Z,3.67
2023-05-06T04:16:27.135Z,3.50
2023-05-06T04:18:55.412Z,4.53
2023-05-06T04:21:23.370Z,4.23
2023-05-06T04:23:51.250Z,3.90
2023-05-06T04:26:19.172Z,3.50
2023-05-06T04:28:47.043Z,3.83
2023-05-06T04:31:15.518Z,3.90
2023-05-06T04:33:44.969Z,3.67
2023-05-06T04:36:12.903Z,4.37
2023-05-06T04:38:40.915Z,4.07
2023-05-06T04:41:09.485Z,4.10
2023-05-06T04:43:37.340Z,4.40
2023-05-06T04:46:05.267Z,3.43
2023-05-06T04:48:33.399Z,4.10
2023-05-06T04:51:04.396Z,3.43
2023-05-06T04:53:32.304Z,4.23
2023-05-06T04:56:00.240Z,3.60
2023-05-06T04:58:28.104Z,3.90
2023-05-06T05:00:57.290Z,3.30
2023-05-06T05:03:25.482Z,3.47
2023-05-06T05:05:53.642Z,3.50
2023-05-06T05:08:22.854Z,3.13
2023-05-06T05:10:50.827Z,2.70
2023-05-06T05:13:18.692Z,3.10
2023-05-06T05:15:46.600Z,3.30
2023-05-06T05:18:14.501Z,3.20
2023-05-06T05:20:42.360Z,3.00
2023-05-06T05:23:10.285Z,3.80
2023-05-06T05:25:39.553Z,4.13
2023-05-06T05:28:07.383Z,3.43
2023-05-06T05:30:35.217Z,5.20
2023-05-06T05:33:03.144Z,4.43
2023-05-06T05:35:31.062Z,3.00
2023-05-06T05:37:58.972Z,3.10
2023-05-06T05:40:26.852Z,3.80
2023-05-06T05:42:56.352Z,2.97
2023-05-06T05:45:24.369Z,4.30
2023-05-06T05:47:53.775Z,4.60
2023-05-06T05:50:21.960Z,5.57
2023-05-06T05:52:49.931Z,4.07
2023-05-06T05:55:18.012Z,5.10
2023-05-06T05:57:45.875Z,5.67
2023-05-06T06:00:16.047Z,5.30
2023-05-06T06:02:44.029Z,6.80
2023-05-06T06:05:12.056Z,5.47
2023-05-06T06:07:40.334Z,5.40
2023-05-06T06:10:09.271Z,5.67
2023-05-06T06:12:37.196Z,5.50
2023-05-06T06:15:05.619Z,6.37
2023-05-06T06:17:34.856Z,4.70
2023-05-06T06:20:02.996Z,6.77
2023-05-06T06:22:31.072Z,6.33
2023-05-06T06:24:59.021Z,5.30
2023-05-06T06:27:26.944Z,4.53
2023-05-06T06:29:54.821Z,4.53
2023-05-06T06:32:22.709Z,4.37
2023-05-06T06:34:51.925Z,4.63
2023-05-06T06:37:19.872Z,3.43
2023-05-06T06:39:47.777Z,3.33
2023-05-06T06:42:15.682Z,2.70
2023-05-06T06:44:43.540Z,3.17
2023-05-06T06:47:11.428Z,2.80
2023-05-06T06:49:40.313Z,2.93
2023-05-06T06:52:09.552Z,2.80
2023-05-06T06:54:38.783Z,2.40
2023-05-06T06:57:07.639Z,2.63
2023-05-06T06:59:35.678Z,2.27
2023-05-06T07:02:03.818Z,3.00
2023-05-06T07:04:31.735Z,3.07
2023-05-06T07:06:59.621Z,2.30
2023-05-06T07:09:28.947Z,2.33
2023-05-06T07:11:56.802Z,2.27
2023-05-06T07:14:25.777Z,2.20
2023-05-06T07:16:53.743Z,2.10
2023-05-06T07:19:21.634Z,1.73
2023-05-06T07:21:49.759Z,4.13
2023-05-06T07:24:17.620Z,1.90
2023-05-06T07:26:47.943Z,1.63
2023-05-06T07:29:15.942Z,2.10
2023-05-06T07:31:44.023Z,3.23
2023-05-06T07:34:12.032Z,1.20
2023-05-06T07:36:43.105Z,2.17
2023-05-06T07:39:11.301Z,1.17
2023-05-06T07:41:39.440Z,3.07
2023-05-06T07:44:08.659Z,1.53
2023-05-06T07:46:36.745Z,2.17
2023-05-06T07:49:04.756Z,2.73
2023-05-06T07:51:33.017Z,1.67
2023-05-06T07:54:01.084Z,1.50
2023-05-06T07:56:28.965Z,1.20
2023-05-06T07:58:56.817Z,1.40
2023-05-06T08:01:26.399Z,1.10
2023-05-06T08:03:54.304Z,1.23
2023-05-06T08:06:22.266Z,1.30
2023-05-06T08:08:50.207Z,1.00
2023-05-06T08:11:19.514Z,4.23
2023-05-06T08:13:47.896Z,0.93
2023-05-06T08:16:16.055Z,1.27
2023-05-06T08:18:45.305Z,1.60
2023-05-06T08:21:13.194Z,1.90
2023-05-06T08:23:41.042Z,0.73
2023-05-06T08:26:08.898Z,0.90
2023-05-06T08:28:36.829Z,1.33
2023-05-06T08:31:04.706Z,1.60
2023-05-06T08:33:32.614Z,0.90
2023-05-06T08:36:01.934Z,1.50
2023-05-06T08:38:29.868Z,3.17
2023-05-06T08:41:00.533Z,1.27
2023-05-06T08:43:31.892Z,2.37
2023-05-06T08:46:00.169Z,2.50
2023-05-06T08:48:29.926Z,1.60
2023-05-06T08:51:01.004Z,1.70
2023-05-06T08:53:30.641Z,3.80
2023-05-06T08:56:04.010Z,2.23
2023-05-06T08:58:34.176Z,1.03
2023-05-06T09:01:03.638Z,6.10
2023-05-06T09:03:32.787Z,1.63
2023-05-06T09:06:00.864Z,1.63
2023-05-06T09:08:30.192Z,0.80
2023-05-06T09:10:58.369Z,1.60
2023-05-06T09:13:26.207Z,4.00
2023-05-06T09:15:55.427Z,1.80
2023-05-06T09:18:24.137Z,1.37
2023-05-06T09:20:51.973Z,1.40
2023-05-06T09:23:20.055Z,1.90
2023-05-06T09:25:51.178Z,1.30
2023-05-06T09:28:19.050Z,1.23
2023-05-06T09:30:47.704Z,0.90
2023-05-06T09:33:15.867Z,1.60
2023-05-06T09:35:45.634Z,5.23
2023-05-06T09:38:13.570Z,3.00
2023-05-06T09:40:41.397Z,1.33
2023-05-06T09:43:10.649Z,1.07
2023-05-06T09:45:38.579Z,1.00
2023-05-06T09:48:09.220Z,1.00
2023-05-06T09:50:37.615Z,0.90
2023-05-06T09:53:06.147Z,2.20
2023-05-06T09:55:34.649Z,1.37
2023-05-06T09:58:04.730Z,2.30
2023-05-06T10:00:34.300Z,0.97
2023-05-06T10:03:03.145Z,0.50
2023-05-06T10:05:33.023Z,2.87
2023-05-06T10:08:01.489Z,1.00
2023-05-06T10:10:31.352Z,0.93
2023-05-06T10:12:59.213Z,0.70
2023-05-06T10:15:27.690Z,1.30
2023-05-06T10:17:57.240Z,2.10
2023-05-06T10:20:27.376Z,1.37
2023-05-06T10:23:04.486Z,1.57
2023-05-06T10:25:38.150Z,2.10
2023-05-06T10:28:08.017Z,1.10
2023-05-06T10:30:40.173Z,1.27
2023-05-06T10:33:11.002Z,1.17
2023-05-06T10:35:49.314Z,3.50
2023-05-06T10:38:21.518Z,1.23
2023-05-06T10:40:50.262Z,2.50
2023-05-06T10:43:23.707Z,1.17
2023-05-06T10:46:01.292Z,0.90
2023-05-06T10:48:31.269Z,0.60
2023-05-06T10:51:25.813Z,1.80
2023-05-06T10:54:03.084Z,0.70
2023-05-06T10:56:32.635Z,1.73
2023-05-06T10:59:07.812Z,1.00
2023-05-06T11:01:36.430Z,3.03
2023-05-06T11:04:10.707Z,1.03
2023-05-06T11:06:42.175Z,1.33
2023-05-06T11:09:17.858Z,1.00
2023-05-06T11:11:58.707Z,3.23
2023-05-06T11:14:28.385Z,0.93
2023-05-06T11:16:57.624Z,0.60
2023-05-06T11:19:28.083Z,2.03
2023-05-06T11:21:57.600Z,0.97
2023-05-06T11:24:27.570Z,0.70
2023-05-06T11:26:56.707Z,1.30
2023-05-06T11:29:25.285Z,0.40
2023-05-06T11:31:54.090Z,1.00
2023-05-06T11:34:26.783Z,2.87
2023-05-06T11:37:02.151Z,0.60
2023-05-06T11:39:33.428Z,0.60
2023-05-06T11:42:08.547Z,1.60
2023-05-06T11:44:38.550Z,0.70
2023-05-06T11:47:07.941Z,0.70
2023-05-06T11:49:42.343Z,0.63
2023-05-06T11:52:11.374Z,1.00
2023-05-06T11:54:41.569Z,0.60
2023-05-06T11:57:09.923Z,1.30
2023-05-06T11:59:39.461Z,0.80
2023-05-06T12:02:08.992Z,0.63
2023-05-06T12:04:43.064Z,1.73
2023-05-06T12:07:12.874Z,0.80
2023-05-06T12:09:43.431Z,1.07
2023-05-06T12:12:12.181Z,1.00
2023-05-06T12:14:40.587Z,0.70
2023-05-06T12:17:08.682Z,0.77
2023-05-06T12:19:37.002Z,1.80
2023-05-06T12:22:20.063Z,0.80
2023-05-06T12:24:48.477Z,0.93
2023-05-06T12:27:28.540Z,0.67
2023-05-06T12:29:56.677Z,0.80
2023-05-06T12:32:24.559Z,0.57
2023-05-06T12:34:52.465Z,1.33
2023-05-06T12:37:29.709Z,0.80
2023-05-06T12:40:07.757Z,2.37
2023-05-06T12:42:35.862Z,1.20
2023-05-06T12:45:15.330Z,1.30
2023-05-06T12:47:54.542Z,1.13
2023-05-06T12:50:36.478Z,1.70
2023-05-06T12:53:07.148Z,0.87
2023-05-06T12:55:35.868Z,1.23
2023-05-06T12:58:04.036Z,0.93
2023-05-06T13:00:32.097Z,0.57
2023-05-06T13:03:00.191Z,0.70
2023-05-06T13:05:28.227Z,1.37
2023-05-06T13:07:56.252Z,1.10
2023-05-06T13:10:25.704Z,0.90
2023-05-06T13:12:53.620Z,0.87
2023-05-06T13:15:21.670Z,0.83
2023-05-06T13:17:50.228Z,0.90
2023-05-06T13:20:18.907Z,1.57
2023-05-06T13:22:54.403Z,1.30
2023-05-06T13:25:22.983Z,1.90
2023-05-06T13:27:52.206Z,0.60
2023-05-06T13:30:20.076Z,1.17
2023-05-06T13:32:48.680Z,0.80
2023-05-06T13:35:16.812Z,0.70
2023-05-06T13:37:44.712Z,0.70
2023-05-06T13:40:13.855Z,2.10
2023-05-06T13:42:41.796Z,1.43
2023-05-06T13:45:11.886Z,1.53
2023-05-06T13:47:39.886Z,1.23
2023-05-06T13:50:09.095Z,1.47
2023-05-06T13:52:37.094Z,0.87
2023-05-06T13:55:05.747Z,0.97
2023-05-06T13:57:33.893Z,0.80
2023-05-06T14:00:01.750Z,0.80
2023-05-06T14:02:31.023Z,0.90
2023-05-06T14:04:59.040Z,2.20
2023-05-06T14:07:26.964Z,1.20
2023-05-06T14:09:54.816Z,0.80
2023-05-06T14:12:23.262Z,1.00
2023-05-06T14:14:51.394Z,2.03
2023-05-06T14:17:19.354Z,3.07
2023-05-06T14:19:48.592Z,1.37
2023-05-06T14:22:16.453Z,1.33
2023-05-06T14:24:44.344Z,0.90
2023-05-06T14:27:12.284Z,1.23
2023-05-06T14:29:43.050Z,1.17
2023-05-06T14:32:10.948Z,0.80
2023-05-06T14:34:39.271Z,1.03
2023-05-06T14:37:08.706Z,0.90
2023-05-06T14:39:36.599Z,0.70
2023-05-06T14:42:04.570Z,1.43
2023-05-06T14:44:32.500Z,0.93
2023-05-06T14:47:00.369Z,0.77
2023-05-06T14:49:28.249Z,1.33
2023-05-06T14:51:57.199Z,1.30
2023-05-06T14:54:29.277Z,0.60
2023-05-06T14:57:01.269Z,0.77
2023-05-06T14:59:29.298Z,0.70
2023-05-06T15:01:58.781Z,0.80
2023-05-06T15:04:27.390Z,0.80
2023-05-06T15:06:56.824Z,1.00
2023-05-06T15:09:26.256Z,0.80
2023-05-06T15:11:54.188Z,0.70
2023-05-06T15:14:22.039Z,0.80
2023-05-06T15:16:49.954Z,0.77
2023-05-06T15:19:17.862Z,0.70
2023-05-06T15:21:45.835Z,1.03
2023-05-06T15:24:13.671Z,1.03
2023-05-06T15:26:42.897Z,1.50
2023-05-06T15:29:10.818Z,0.90
2023-05-06T15:31:40.854Z,0.70
2023-05-06T15:34:10.584Z,1.60
2023-05-06T15:36:38.563Z,0.70
2023-05-06T15:39:06.471Z,0.97
2023-05-06T15:41:36.342Z,0.70
2023-05-06T15:44:06.604Z,1.30
2023-05-06T15:46:34.864Z,0.67
2023-05-06T15:49:32.035Z,0.70
2023-05-06T15:51:50.657Z,0.60
2023-05-06T15:54:19.252Z,0.60
2023-05-06T15:56:47.580Z,0.90
2023-05-06T15:59:16.952Z,0.93
2023-05-06T16:04:17.104Z,3.00
2023-05-06T16:06:45.159Z,1.23
2023-05-06T16:09:13.121Z,0.90
2023-05-06T16:11:41.150Z,1.30
2023-05-06T16:14:09.005Z,0.50
2023-05-06T16:16:38.490Z,0.97
2023-05-06T16:19:06.483Z,1.20
2023-05-06T16:21:34.430Z,0.83
2023-05-06T16:24:02.365Z,0.93
2023-05-06T16:26:30.462Z,1.17
2023-05-06T16:28:59.519Z,1.30
2023-05-06T16:31:27.904Z,4.23
2023-05-06T16:33:57.143Z,1.40
2023-05-06T16:36:25.046Z,1.13
2023-05-06T16:38:52.900Z,1.17
2023-05-06T16:41:20.758Z,0.90
2023-05-06T16:43:48.713Z,1.50
2023-05-06T16:46:16.619Z,0.90
2023-05-06T16:48:44.615Z,1.57
2023-05-06T16:51:15.726Z,1.27
2023-05-06T16:53:44.051Z,0.70
2023-05-06T16:56:11.984Z,2.50
2023-05-06T16:58:39.874Z,1.00
2023-05-06T17:01:08.223Z,0.73
2023-05-06T17:03:37.753Z,3.50
2023-05-06T17:06:06.142Z,0.73
2023-05-06T17:08:37.250Z,0.70
2023-05-06T17:11:07.573Z,0.63
2023-05-06T17:13:35.576Z,0.83
2023-05-06T17:16:03.461Z,1.27
2023-05-06T17:18:31.329Z,1.33
2023-05-06T17:20:59.289Z,1.20
2023-05-06T17:23:27.204Z,1.20
2023-05-06T17:25:58.200Z,0.70
2023-05-06T17:28:26.168Z,1.20
2023-05-06T17:30:54.116Z,0.90
2023-05-06T17:33:22.489Z,1.00
2023-05-06T17:35:50.353Z,0.60
2023-05-06T17:38:18.230Z,1.03
2023-05-06T17:40:46.107Z,0.93
2023-05-06T17:43:15.347Z,0.77
2023-05-06T17:45:43.250Z,0.83
2023-05-06T17:48:11.292Z,0.67
2023-05-06T17:50:39.231Z,0.73
2023-05-06T17:53:07.112Z,0.87
2023-05-06T17:55:34.979Z,0.77
2023-05-06T17:58:02.829Z,1.00
2023-05-06T18:00:32.155Z,0.90
2023-05-06T18:03:00.681Z,1.00
2023-05-06T18:05:28.896Z,3.33
2023-05-06T18:07:56.839Z,3.13
2023-05-06T18:10:24.691Z,3.10
2023-05-06T18:12:52.768Z,2.80
2023-05-06T18:15:21.050Z,3.10
2023-05-06T18:17:50.705Z,2.20
2023-05-06T18:20:18.690Z,3.63
2023-05-06T18:22:46.569Z,1.97
2023-05-06T18:25:14.440Z,1.20
2023-05-06T18:27:42.377Z,1.83
2023-05-06T18:30:10.716Z,0.90
2023-05-06T18:32:38.660Z,1.30
2023-05-06T18:35:08.501Z,1.10
2023-05-06T18:37:36.876Z,1.20
2023-05-06T18:40:06.077Z,1.20
2023-05-06T18:42:34.658Z,1.20
2023-05-06T18:45:04.577Z,1.40
2023-05-06T18:47:33.085Z,0.90
2023-05-06T18:50:01.110Z,2.20
2023-05-06T18:52:30.369Z,1.03
2023-05-06T18:54:58.263Z,1.00
2023-05-06T18:57:26.939Z,0.60
2023-05-06T18:59:54.820Z,1.07
2023-05-06T19:02:22.839Z,1.10
2023-05-06T19:04:50.830Z,1.20
2023-05-06T19:07:18.749Z,1.40
2023-05-06T19:09:48.558Z,1.43
2023-05-06T19:12:16.499Z,1.17
2023-05-06T19:14:44.403Z,1.10
2023-05-06T19:17:12.270Z,1.13
2023-05-06T19:19:40.716Z,1.10
2023-05-06T19:22:08.916Z,1.30
2023-05-06T19:24:36.782Z,2.20
2023-05-06T19:27:06.071Z,1.20
2023-05-06T19:29:34.024Z,1.10
2023-05-06T19:32:02.307Z,1.00
2023-05-06T19:34:30.402Z,0.83
2023-05-06T19:36:58.522Z,1.10
2023-05-06T19:39:26.411Z,1.70
2023-05-06T19:41:55.627Z,0.90
2023-05-06T19:44:24.851Z,0.90
2023-05-06T19:46:54.638Z,1.27
2023-05-06T19:49:22.566Z,1.37
2023-05-06T19:51:50.410Z,2.10
2023-05-06T19:54:19.340Z,1.00
2023-05-06T19:56:47.288Z,1.63
2023-05-06T19:59:15.102Z,1.67
2023-05-06T20:01:44.402Z,1.20
2023-05-06T20:04:12.333Z,1.43
2023-05-06T20:06:40.539Z,1.37
2023-05-06T20:09:10.283Z,2.03
2023-05-06T20:11:38.145Z,1.20
2023-05-06T20:14:06.000Z,1.37
2023-05-06T20:16:33.916Z,1.63
2023-05-06T20:19:03.696Z,1.63
2023-05-06T20:21:31.713Z,1.03
2023-05-06T20:23:59.715Z,1.40
2023-05-06T20:26:27.674Z,0.80
2023-05-06T20:28:55.551Z,1.23
2023-05-06T20:31:23.534Z,1.40
2023-05-06T20:33:51.485Z,1.70
2023-05-06T20:36:21.007Z,1.53
2023-05-06T20:38:49.066Z,1.13
2023-05-06T20:41:17.373Z,0.97
2023-05-06T20:43:45.307Z,1.33
2023-05-06T20:46:13.190Z,1.53
2023-05-06T20:48:41.156Z,1.50
2023-05-06T20:51:08.978Z,1.10
2023-05-06T20:53:38.788Z,0.87
2023-05-06T20:56:07.923Z,1.20
2023-05-06T20:58:35.778Z,1.00
2023-05-06T21:01:04.790Z,1.43
2023-05-06T21:03:32.741Z,2.30
2023-05-06T21:06:00.646Z,1.47
2023-05-06T21:08:28.613Z,1.20
2023-05-06T21:10:57.786Z,1.63
2023-05-06T21:13:25.793Z,1.60
2023-05-06T21:15:53.722Z,1.80
2023-05-06T21:18:21.624Z,1.73
2023-05-06T21:20:49.657Z,1.43
2023-05-06T21:23:18.914Z,1.43
2023-05-06T21:25:46.832Z,2.00
2023-05-06T21:28:16.042Z,2.23
2023-05-06T21:30:43.954Z,1.20
2023-05-06T21:33:11.836Z,1.40
2023-05-06T21:35:39.784Z,1.30
2023-05-06T21:38:08.372Z,1.50
2023-05-06T21:40:36.279Z,1.20
2023-05-06T21:43:04.311Z,1.57
2023-05-06T21:45:33.506Z,1.43
2023-05-06T21:48:01.425Z,1.20
2023-05-06T21:50:29.297Z,1.53
2023-05-06T21:52:57.157Z,1.53
2023-05-06T21:55:27.673Z,1.50
2023-05-06T21:57:55.603Z,1.20
2023-05-06T22:00:23.531Z,1.63
2023-05-06T22:02:53.619Z,1.47
2023-05-06T22:05:21.663Z,1.60
2023-05-06T22:07:49.622Z,1.10
2023-05-06T22:10:17.510Z,1.60
2023-05-06T22:12:45.354Z,1.20
2023-05-06T22:15:14.644Z,1.47
2023-05-06T22:17:42.596Z,1.50
2023-05-06T22:20:12.562Z,1.10
2023-05-06T22:22:40.709Z,1.10
2023-05-06T22:25:09.556Z,1.50
2023-05-06T22:27:37.645Z,1.00
2023-05-06T22:30:06.052Z,1.40
2023-05-06T22:32:33.936Z,1.57
2023-05-06T22:35:01.841Z,1.67
2023-05-06T22:37:31.437Z,1.33
2023-05-06T22:39:59.370Z,1.90
2023-05-06T22:42:27.261Z,1.80
2023-05-06T22:44:55.164Z,1.67
2023-05-06T22:47:23.040Z,1.60
2023-05-06T22:49:50.983Z,1.53
2023-05-06T22:52:19.345Z,1.30
2023-05-06T22:54:48.573Z,2.20
2023-05-06T22:57:16.448Z,1.37
2023-05-06T22:59:44.407Z,1.70
2023-05-06T23:02:12.391Z,1.50
2023-05-06T23:04:40.370Z,1.90
2023-05-06T23:07:08.204Z,1.50
2023-05-06T23:09:36.054Z,1.13
2023-05-06T23:12:06.163Z,1.50
2023-05-06T23:14:34.003Z,2.00
2023-05-06T23:17:01.950Z,1.27
2023-05-06T23:19:29.873Z,2.50
2023-05-06T23:21:57.692Z,2.13
2023-05-06T23:24:25.733Z,2.80
2023-05-06T23:26:54.339Z,1.60
2023-05-06T23:29:23.519Z,1.93
2023-05-06T23:31:51.437Z,1.67
2023-05-06T23:34:19.275Z,3.70
2023-05-06T23:36:47.178Z,1.77
2023-05-06T23:39:14.983Z,2.53
2023-05-06T23:41:42.888Z,2.13
2023-05-06T23:44:10.711Z,1.90
2023-05-06T23:46:40.258Z,1.70
2023-05-06T23:49:08.456Z,1.77
2023-05-06T23:51:36.406Z,2.43
2023-05-06T23:54:04.319Z,1.93
2023-05-06T23:56:32.160Z,1.83
2023-05-06T23:59:00.039Z,2.20
